createdAt,value
2023-03-22T00:02:26.674Z,86.44
2023-03-22T00:04:54.020Z,86.49
2023-03-22T00:07:20.749Z,87.34
2023-03-22T00:09:47.593Z,87.01
2023-03-22T00:12:14.452Z,87.28
2023-03-22T00:14:41.491Z,87.68
2023-03-22T00:17:08.296Z,89.00
2023-03-22T00:19:35.177Z,89.27
2023-03-22T00:22:02.138Z,89.54
2023-03-22T00:24:28.978Z,88.75
2023-03-22T00:26:56.589Z,89.28
2023-03-22T00:29:24.213Z,88.60
2023-03-22T00:31:54.507Z,88.86
2023-03-22T00:34:21.452Z,89.17
2023-03-22T00:36:48.591Z,88.95
2023-03-22T00:39:15.885Z,88.74
2023-03-22T00:41:43.067Z,88.00
2023-03-22T00:44:09.953Z,89.10
2023-03-22T00:46:37.577Z,89.68
2023-03-22T00:49:04.450Z,88.99
2023-03-22T00:51:33.034Z,89.35
2023-03-22T00:54:00.407Z,90.08
2023-03-22T00:56:29.053Z,89.83
2023-03-22T00:59:02.536Z,89.17
2023-03-22T01:01:30.563Z,89.33
2023-03-22T01:03:57.555Z,89.66
2023-03-22T01:06:24.479Z,91.04
2023-03-22T01:08:51.303Z,90.29
2023-03-22T01:11:18.488Z,89.39
2023-03-22T01:13:45.695Z,89.68
2023-03-22T01:16:12.815Z,89.41
2023-03-22T01:18:39.972Z,88.99
2023-03-22T01:21:08.189Z,89.85
2023-03-22T01:23:35.737Z,89.80
2023-03-22T01:26:02.863Z,89.97
2023-03-22T01:28:30.345Z,89.90
2023-03-22T01:31:01.637Z,90.34
2023-03-22T01:33:28.543Z,90.42
2023-03-22T01:35:55.828Z,89.59
2023-03-22T01:38:23.418Z,89.49
2023-03-22T01:40:55.864Z,90.20
2023-03-22T01:43:22.993Z,89.88
2023-03-22T01:45:53.896Z,90.58
2023-03-22T01:48:26.195Z,90.94
2023-03-22T01:50:56.250Z,90.56
2023-03-22T01:53:26.542Z,91.04
2023-03-22T01:55:54.846Z,91.77
2023-03-22T01:58:27.836Z,91.17
2023-03-22T02:00:58.632Z,91.59
2023-03-22T02:03:58.910Z,91.61
2023-03-22T02:06:26.970Z,91.59
2023-03-22T02:09:01.224Z,92.41
2023-03-22T02:11:34.868Z,92.07
2023-03-22T02:14:06.351Z,91.68
2023-03-22T02:17:04.600Z,91.61
2023-03-22T02:20:10.705Z,91.57
2023-03-22T02:22:46.576Z,91.78
2023-03-22T02:25:51.035Z,92.13
2023-03-22T02:28:33.784Z,92.10
2023-03-22T02:31:12.770Z,91.85
2023-03-22T02:34:28.760Z,90.99
2023-03-22T02:37:13.491Z,91.47
2023-03-22T02:40:06.184Z,91.98
2023-03-22T02:43:09.392Z,91.74
2023-03-22T02:45:50.916Z,92.05
2023-03-22T02:48:20.259Z,91.73
2023-03-22T02:50:56.191Z,91.56
2023-03-22T02:53:26.743Z,91.75
2023-03-22T02:55:58.789Z,91.57
2023-03-22T02:58:45.759Z,92.28
2023-03-22T03:01:18.662Z,91.55
2023-03-22T03:03:48.313Z,92.11
2023-03-22T03:06:18.554Z,92.27
2023-03-22T03:08:50.808Z,92.14
2023-03-22T03:11:18.290Z,92.74
2023-03-22T03:13:49.155Z,92.72
2023-03-22T03:16:19.156Z,92.21
2023-03-22T03:19:10.441Z,93.22
2023-03-22T03:22:16.660Z,92.77
2023-03-22T03:24:57.667Z,92.71
2023-03-22T03:27:33.137Z,92.27
2023-03-22T03:30:10.159Z,92.78
2023-03-22T03:33:05.055Z,92.32
2023-03-22T03:35:37.746Z,92.30
2023-03-22T03:38:10.064Z,92.20
2023-03-22T03:40:41.532Z,93.02
2023-03-22T03:43:09.091Z,93.20
2023-03-22T03:45:37.259Z,93.00
2023-03-22T03:48:11.382Z,92.72
2023-03-22T03:50:38.673Z,92.27
2023-03-22T03:53:05.890Z,92.98
2023-03-22T03:55:33.707Z,93.00
2023-03-22T03:58:00.601Z,93.85
2023-03-22T04:00:27.718Z,93.56
2023-03-22T04:03:24.260Z,93.33
2023-03-22T04:06:11.383Z,93.25
2023-03-22T04:08:41.868Z,93.98
2023-03-22T04:11:08.900Z,93.60
2023-03-22T04:13:37.065Z,93.36
2023-03-22T04:16:09.021Z,93.77
2023-03-22T04:18:38.041Z,94.09
2023-03-22T04:21:08.023Z,94.53
2023-03-22T04:23:47.044Z,94.30
2023-03-22T04:26:14.684Z,94.24
2023-03-22T04:28:55.109Z,94.15
2023-03-22T04:31:22.401Z,94.05
2023-03-22T04:34:00.487Z,93.74
2023-03-22T04:36:41.240Z,94.37
2023-03-22T04:39:44.032Z,95.03
2023-03-22T04:42:36.105Z,95.15
2023-03-22T04:45:13.373Z,95.42
2023-03-22T04:47:42.944Z,95.89
2023-03-22T04:50:11.342Z,95.89
2023-03-22T04:52:48.224Z,95.44
2023-03-22T04:55:15.419Z,95.40
2023-03-22T04:57:43.982Z,95.01
2023-03-22T05:00:11.423Z,94.74
2023-03-22T05:02:41.458Z,95.00
2023-03-22T05:05:16.401Z,94.39
2023-03-22T05:07:44.120Z,93.97
2023-03-22T05:10:11.277Z,93.79
2023-03-22T05:12:39.650Z,92.92
2023-03-22T05:15:16.256Z,92.91
2023-03-22T05:17:43.548Z,92.87
2023-03-22T05:20:11.700Z,92.13
2023-03-22T05:22:41.316Z,93.08
2023-03-22T05:25:11.681Z,92.63
2023-03-22T05:27:42.480Z,92.46
2023-03-22T05:30:30.274Z,91.72
2023-03-22T05:33:06.235Z,90.61
2023-03-22T05:35:42.399Z,90.52
2023-03-22T05:38:10.813Z,90.07
2023-03-22T05:40:42.084Z,90.37
2023-03-22T05:43:09.022Z,89.98
2023-03-22T05:45:38.125Z,88.37
2023-03-22T05:48:25.418Z,87.69
2023-03-22T05:50:52.442Z,86.95
2023-03-22T05:53:19.222Z,86.71
2023-03-22T05:55:53.267Z,86.15
2023-03-22T05:58:20.321Z,84.21
2023-03-22T06:00:51.471Z,83.47
2023-03-22T06:03:21.746Z,80.83
2023-03-22T06:05:55.292Z,81.10
2023-03-22T06:08:34.263Z,81.36
2023-03-22T06:11:01.273Z,81.83
2023-03-22T06:13:28.369Z,82.30
2023-03-22T06:15:55.633Z,82.40
2023-03-22T06:18:25.569Z,83.19
2023-03-22T06:21:02.013Z,83.55
2023-03-22T06:23:29.116Z,83.48
2023-03-22T06:25:56.199Z,83.02
2023-03-22T06:28:23.839Z,82.86
2023-03-22T06:30:54.529Z,82.53
2023-03-22T06:33:21.376Z,83.08
2023-03-22T06:35:54.229Z,82.14
2023-03-22T06:38:33.151Z,82.01
2023-03-22T06:41:00.095Z,82.66
2023-03-22T06:43:27.117Z,81.72
2023-03-22T06:46:01.772Z,80.62
2023-03-22T06:48:36.234Z,80.59
2023-03-22T06:51:10.480Z,80.43
2023-03-22T06:53:38.181Z,80.21
2023-03-22T06:56:05.695Z,79.68
2023-03-22T06:58:42.322Z,79.05
2023-03-22T07:01:09.356Z,78.62
2023-03-22T07:03:36.717Z,78.35
2023-03-22T07:06:08.875Z,77.58
2023-03-22T07:08:39.059Z,78.38
2023-03-22T07:11:08.170Z,76.94
2023-03-22T07:13:35.821Z,76.57
2023-03-22T07:16:09.855Z,76.10
2023-03-22T07:18:43.489Z,76.39
2023-03-22T07:21:10.823Z,77.66
2023-03-22T07:23:40.803Z,77.71
2023-03-22T07:26:13.522Z,77.72
2023-03-22T07:28:44.791Z,77.97
2023-03-22T07:31:14.256Z,77.48
2023-03-22T07:33:52.380Z,78.20
2023-03-22T07:36:23.984Z,77.49
2023-03-22T07:38:52.301Z,77.56
2023-03-22T07:41:27.732Z,76.97
2023-03-22T07:44:18.051Z,72.55
2023-03-22T07:47:08.209Z,72.33
2023-03-22T07:50:14.227Z,72.12
2023-03-22T07:52:45.253Z,71.00
2023-03-22T07:55:14.239Z,70.44
2023-03-22T07:57:42.022Z,69.93
2023-03-22T08:00:10.615Z,70.19
2023-03-22T08:02:46.294Z,70.42
2023-03-22T08:05:28.345Z,71.02
2023-03-22T08:08:00.720Z,69.83
2023-03-22T08:10:27.879Z,71.01
2023-03-22T08:12:55.513Z,72.28
2023-03-22T08:15:25.684Z,72.55
2023-03-22T08:17:53.686Z,73.42
2023-03-22T08:20:39.765Z,73.71
2023-03-22T08:23:16.178Z,72.75
2023-03-22T08:26:18.776Z,72.59
2023-03-22T08:28:46.024Z,69.55
2023-03-22T08:31:15.891Z,70.17
2023-03-22T08:33:45.239Z,70.37
2023-03-22T08:36:15.442Z,69.37
2023-03-22T08:38:47.640Z,69.35
2023-03-22T08:41:17.309Z,69.02
2023-03-22T08:43:44.077Z,69.54
2023-03-22T08:46:11.346Z,68.75
2023-03-22T08:48:38.627Z,69.92
2023-03-22T08:51:11.142Z,71.75
2023-03-22T08:53:53.376Z,73.14
2023-03-22T08:56:50.343Z,76.36
2023-03-22T08:59:37.552Z,77.75
2023-03-22T09:02:16.812Z,76.97
2023-03-22T09:04:43.781Z,77.50
2023-03-22T09:07:11.103Z,76.59
2023-03-22T09:09:38.679Z,76.89
2023-03-22T09:12:06.048Z,74.34
2023-03-22T09:14:36.072Z,72.85
2023-03-22T09:17:04.296Z,72.72
2023-03-22T09:19:31.791Z,70.94
2023-03-22T09:21:58.977Z,70.68
2023-03-22T09:24:34.120Z,69.93
2023-03-22T09:27:03.477Z,69.46
2023-03-22T09:29:30.706Z,68.65
2023-03-22T09:31:59.176Z,68.76
2023-03-22T09:34:32.130Z,69.05
2023-03-22T09:37:02.403Z,69.64
2023-03-22T09:39:38.543Z,68.26
2023-03-22T09:42:11.055Z,67.34
2023-03-22T09:44:41.709Z,66.77
2023-03-22T09:47:17.990Z,66.25
2023-03-22T09:49:53.653Z,65.49
2023-03-22T09:52:21.766Z,66.83
2023-03-22T09:54:50.413Z,65.70
2023-03-22T09:57:34.154Z,65.77
2023-03-22T10:00:18.804Z,65.91
2023-03-22T10:02:50.406Z,64.30
2023-03-22T10:05:29.069Z,64.98
2023-03-22T10:07:58.750Z,65.81
2023-03-22T10:10:25.760Z,64.34
2023-03-22T10:13:07.709Z,63.61
2023-03-22T10:15:34.777Z,63.93
2023-03-22T10:18:02.847Z,64.24
2023-03-22T10:21:02.000Z,64.81
2023-03-22T10:23:35.256Z,62.25
2023-03-22T10:26:03.742Z,61.67
2023-03-22T10:28:39.733Z,62.20
2023-03-22T10:31:07.244Z,61.31
2023-03-22T10:33:39.071Z,62.90
2023-03-22T10:36:13.409Z,62.06
2023-03-22T10:38:48.583Z,62.37
2023-03-22T10:41:18.665Z,63.13
2023-03-22T10:43:49.259Z,62.23
2023-03-22T10:46:21.889Z,60.53
2023-03-22T10:48:52.015Z,60.02
2023-03-22T10:51:26.471Z,61.59
2023-03-22T10:53:55.822Z,61.90
2023-03-22T10:56:22.644Z,62.23
2023-03-22T10:58:50.243Z,61.49
2023-03-22T11:01:32.402Z,61.50
2023-03-22T11:04:15.508Z,61.53
2023-03-22T11:06:51.967Z,59.68
2023-03-22T11:09:21.541Z,60.75
2023-03-22T11:11:54.360Z,58.98
2023-03-22T11:14:32.019Z,58.03
2023-03-22T11:17:01.076Z,58.02
2023-03-22T11:19:32.257Z,56.83
2023-03-22T11:21:59.789Z,56.80
2023-03-22T11:24:27.847Z,57.49
2023-03-22T11:27:07.305Z,55.85
2023-03-22T11:29:44.620Z,54.58
2023-03-22T11:32:29.008Z,54.20
2023-03-22T11:35:05.875Z,54.71
2023-03-22T11:37:32.822Z,54.27
2023-03-22T11:40:01.998Z,54.17
2023-03-22T11:42:29.055Z,52.44
2023-03-22T11:44:56.974Z,53.61
2023-03-22T11:47:26.250Z,53.39
2023-03-22T11:49:57.310Z,53.68
2023-03-22T11:52:27.891Z,54.19
2023-03-22T11:54:56.239Z,53.14
2023-03-22T11:57:28.480Z,52.62
2023-03-22T12:00:07.241Z,51.67
2023-03-22T12:02:43.936Z,51.95
2023-03-22T12:05:18.575Z,53.78
2023-03-22T12:07:47.285Z,52.18
2023-03-22T12:10:19.014Z,51.52
2023-03-22T12:12:59.826Z,50.80
2023-03-22T12:15:29.742Z,50.55
2023-03-22T12:18:10.228Z,52.75
2023-03-22T12:20:52.470Z,53.10
2023-03-22T12:23:21.693Z,53.79
2023-03-22T12:25:55.464Z,54.25
2023-03-22T12:28:28.147Z,55.89
2023-03-22T12:30:57.739Z,60.17
2023-03-22T12:33:28.545Z,59.87
2023-03-22T12:36:19.812Z,58.74
2023-03-22T12:38:52.289Z,57.96
2023-03-22T12:41:26.457Z,53.65
2023-03-22T12:44:16.500Z,53.63
2023-03-22T12:46:52.805Z,53.05
2023-03-22T12:49:27.937Z,51.75
2023-03-22T12:51:56.918Z,52.42
2023-03-22T12:54:25.846Z,52.72
2023-03-22T12:56:53.095Z,51.58
2023-03-22T12:59:24.428Z,50.93
2023-03-22T13:02:12.473Z,51.37
2023-03-22T13:04:41.082Z,50.05
2023-03-22T13:07:13.906Z,49.21
2023-03-22T13:09:47.780Z,48.24
2023-03-22T13:12:18.526Z,48.16
2023-03-22T13:14:51.371Z,48.24
2023-03-22T13:17:22.560Z,47.97
2023-03-22T13:19:59.405Z,48.32
2023-03-22T13:22:38.330Z,48.05
2023-03-22T13:25:14.579Z,48.13
2023-03-22T13:27:54.604Z,47.17
2023-03-22T13:30:24.367Z,46.60
2023-03-22T13:32:56.507Z,46.37
2023-03-22T13:35:46.835Z,45.64
2023-03-22T13:38:30.079Z,45.18
2023-03-22T13:41:01.817Z,43.25
2023-03-22T13:43:36.159Z,46.32
2023-03-22T13:46:19.992Z,47.44
2023-03-22T13:48:48.638Z,46.93
2023-03-22T13:51:21.987Z,47.69
2023-03-22T13:54:07.480Z,48.71
2023-03-22T13:56:52.544Z,50.35
2023-03-22T13:59:27.091Z,48.65
2023-03-22T14:02:04.961Z,49.63
2023-03-22T14:04:39.522Z,50.68
2023-03-22T14:07:15.287Z,51.73
2023-03-22T14:10:12.713Z,50.71
2023-03-22T14:12:45.474Z,48.33
2023-03-22T14:15:17.196Z,46.23
2023-03-22T14:18:00.939Z,44.88
2023-03-22T14:20:32.904Z,45.06
